Southgate, MI (48195)

6:58 PM EDT on September 24, 2016 (GMT -0400)
Southgate | | Change Station

Elev 587 ft 42.21 °N, 83.19 °W | Updated 46 seconds ago

Partly Cloudy
Partly Cloudy
67.1 °F
Feels Like 67.1 °F
N
3.0
Wind Variable Wind from East
Gusts 4.0 mph

Today
High -- | Low -- °F
--% Chance of Precip.
Yesterday
High -- | Low -- °F
Precip. -- in
Pressure 30.22 in
Visibility 10.0 miles
Clouds Few 3000 ft
Dew Point 51 °F
Humidity 56%
Rainfall 0.00 in
Snow Depth Not available.
7:22 AM 7:25 PM
Waning Crescent, 34% visible
METAR KDTW 242253Z 04004KT 10SM FEW030 19/07 A3022 RMK AO2 SLP232 T01940067
Pressure 30.22 in
Visibility 10.0 miles
Clouds Few 3000 ft
Dew Point 51 °F
Humidity 56%
Rainfall 0.00 in
Snow Depth Not available.
7:22 AM 7:25 PM
Waning Crescent, 34% visible
METAR KDTW 242253Z 04004KT 10SM FEW030 19/07 A3022 RMK AO2 SLP232 T01940067

10-Day Weather Forecast

Almanac

Astronomy

Sep. 24, 2016 Rise Set
Actual Time
Civil Twilight
Nautical Twilight
Astronomical Twilight
Moon
Length of Visible Light
Length of Day
Tomorrow will be .
, % of the Moon is Illuminated

Today's Extremes

State Highs State Lows

Community

WunderPhotos

Upload Photos

1,941,451 photos uploaded!

WunderBlog® & News

Nearby

Air Quality

  Air Quality AQ Index Pollutant
Not available.

Snow Depth

Station Depth Elevation

Earthquake Activity

City Distance Mag. Time & Date
Minimum magnitude displayed is 2.5.

Coastal Water Temperatures

Place Temperature

Stations

Nearby Weather Stations

Station Location Temp. Windchill Dew Point Humidity Wind Precip. Elev Updated Type
                   

Watches & Warnings

There are currently no watches in effect.